Time;durP1;ratioP1;P1;durP2;ratioP2;P2;SDS_P1;SDS_P2;PMS_P1;PMS_P2;Temp;Humidity;BMP_temperature;BMP_pressure;BME280_temperature;BME280_humidity;BME280_pressure;Samples;Min_cycle;Max_cycle;Signal;HPM_P1;HPM_P2
2023/10/18 00:00:18;;;;;;;32.80;17.23;;;;;;;4.13;100.00;101077.56;5103468;27;20052;-77
2023/10/18 00:02:46;;;;;;;37.47;18.97;;;;;;;4.12;100.00;101086.19;5085846;27;20382;-78
2023/10/18 00:05:15;;;;;;;33.25;17.80;;;;;;;4.08;100.00;101082.66;5099463;27;20293;-78
2023/10/18 00:07:43;;;;;;;36.28;17.60;;;;;;;4.06;100.00;101086.03;5089310;27;20134;-79
2023/10/18 00:10:11;;;;;;;30.67;16.67;;;;;;;4.04;100.00;101091.19;5086840;27;20062;-78
2023/10/18 00:12:39;;;;;;;39.08;18.20;;;;;;;4.02;100.00;101084.22;5096552;27;20051;-77
2023/10/18 00:15:09;;;;;;;28.48;16.88;;;;;;;3.97;100.00;101086.69;5105101;27;20048;-77
2023/10/18 00:17:36;;;;;;;31.50;16.35;;;;;;;3.88;100.00;101084.72;5095974;27;20066;-76
2023/10/18 00:20:06;;;;;;;25.65;16.08;;;;;;;3.81;100.00;101077.66;5100043;27;20040;-77
2023/10/18 00:22:32;;;;;;;27.20;16.50;;;;;;;3.74;100.00;101074.03;5106062;27;20070;-77
2023/10/18 00:25:00;;;;;;;29.65;17.20;;;;;;;3.61;100.00;101075.41;5101435;27;20058;-77
2023/10/18 00:27:26;;;;;;;28.25;16.58;;;;;;;3.51;100.00;101083.78;5101699;27;20534;-78
2023/10/18 00:29:53;;;;;;;27.50;16.83;;;;;;;3.43;100.00;101069.75;5103629;27;20052;-78
2023/10/18 00:32:21;;;;;;;34.25;17.55;;;;;;;3.37;100.00;101072.19;5103825;27;20039;-78
2023/10/18 00:34:56;;;;;;;27.73;17.02;;;;;;;3.31;100.00;101078.03;5102299;27;20104;-77
2023/10/18 00:37:23;;;;;;;26.30;17.08;;;;;;;3.26;100.00;101069.28;5098000;27;20162;-77
2023/10/18 00:39:52;;;;;;;27.63;16.52;;;;;;;3.19;100.00;101068.22;5102545;27;20039;-79
2023/10/18 00:42:28;;;;;;;27.60;16.48;;;;;;;3.18;100.00;101070.78;5081507;28;20060;-77
2023/10/18 00:45:01;;;;;;;29.27;18.10;;;;;;;3.18;100.00;101066.50;5098116;27;20491;-77
2023/10/18 00:47:30;;;;;;;33.83;18.98;;;;;;;3.15;100.00;101068.97;5102523;27;20047;-77
2023/10/18 00:49:58;;;;;;;34.63;19.70;;;;;;;3.09;100.00;101067.09;5103246;27;20119;-78
2023/10/18 00:52:26;;;;;;;35.28;19.77;;;;;;;3.10;100.00;101065.38;5101124;27;20036;-78
2023/10/18 00:54:53;;;;;;;31.70;16.80;;;;;;;3.06;100.00;101061.81;5079010;27;20470;-78
2023/10/18 00:57:22;;;;;;;29.85;18.42;;;;;;;3.05;100.00;101060.09;5102106;27;20046;-78
2023/10/18 00:59:55;;;;;;;29.60;16.67;;;;;;;3.06;100.00;101071.31;5102589;27;20165;-79
2023/10/18 01:02:28;;;;;;;29.30;18.15;;;;;;;3.00;100.00;101059.09;5095267;28;20711;-80
2023/10/18 01:04:56;;;;;;;29.92;18.45;;;;;;;2.98;100.00;101060.75;5098275;27;20043;-78
2023/10/18 01:07:22;;;;;;;26.35;16.30;;;;;;;2.97;100.00;101056.41;5102817;27;20862;-79
2023/10/18 01:09:53;;;;;;;34.45;16.77;;;;;;;2.94;100.00;101054.59;5105856;27;20047;-79
2023/10/18 01:12:23;;;;;;;26.08;15.40;;;;;;;2.97;100.00;101048.63;5094984;27;20035;-76
2023/10/18 01:14:52;;;;;;;24.80;15.45;;;;;;;2.93;100.00;101054.56;5102875;27;20050;-77
2023/10/18 01:17:23;;;;;;;27.25;15.02;;;;;;;2.86;100.00;101047.47;5100186;27;20031;-78
2023/10/18 01:19:49;;;;;;;23.02;14.55;;;;;;;2.82;100.00;101054.25;5094889;27;20042;-75
2023/10/18 01:22:17;;;;;;;25.50;15.63;;;;;;;2.75;100.00;101050.63;5102798;27;20058;-77
2023/10/18 01:24:47;;;;;;;24.67;15.32;;;;;;;2.77;100.00;101046.34;5103130;27;20457;-78
2023/10/18 01:27:13;;;;;;;30.02;16.33;;;;;;;2.78;100.00;101045.53;5113712;27;20051;-78
2023/10/18 01:29:40;;;;;;;27.65;15.68;;;;;;;2.75;100.00;101045.44;5098448;28;20050;-76
2023/10/18 01:32:07;;;;;;;27.60;16.13;;;;;;;2.76;100.00;101046.31;5101040;27;20654;-75
2023/10/18 01:34:33;;;;;;;24.10;14.98;;;;;;;2.83;100.00;101047.38;5100103;27;20111;-76
2023/10/18 01:37:03;;;;;;;29.25;16.45;;;;;;;2.84;100.00;101047.41;5084033;28;20509;-76
2023/10/18 01:39:29;;;;;;;29.15;16.42;;;;;;;2.83;100.00;101031.84;5102114;27;20042;-77
2023/10/18 01:41:58;;;;;;;24.88;15.10;;;;;;;2.82;100.00;101031.00;5083284;28;20040;-78
2023/10/18 01:44:30;;;;;;;31.63;16.60;;;;;;;2.85;100.00;101035.38;5100944;27;20101;-76
2023/10/18 01:47:02;;;;;;;23.30;14.77;;;;;;;2.86;100.00;101030.25;5100058;27;20027;-75
2023/10/18 01:49:29;;;;;;;25.92;15.35;;;;;;;2.87;100.00;101029.41;5095923;27;20039;-77
2023/10/18 01:51:58;;;;;;;29.40;15.35;;;;;;;2.89;100.00;101032.03;5102274;27;20152;-77
2023/10/18 01:54:26;;;;;;;26.05;14.75;;;;;;;2.89;100.00;101022.56;5097372;27;20475;-80
2023/10/18 01:56:57;;;;;;;26.30;14.52;;;;;;;2.91;100.00;101022.63;5101317;27;20032;-77
2023/10/18 01:59:30;;;;;;;25.75;14.93;;;;;;;2.93;100.00;101028.69;5083617;27;20506;-76
2023/10/18 02:02:00;;;;;;;23.02;14.32;;;;;;;2.89;100.00;101017.38;5083658;28;20717;-75
2023/10/18 02:04:30;;;;;;;24.17;13.23;;;;;;;2.84;100.00;101010.34;5080407;28;20042;-76
2023/10/18 02:06:59;;;;;;;25.85;14.52;;;;;;;2.79;100.00;101005.03;5101461;27;20043;-75
2023/10/18 02:09:35;;;;;;;24.17;14.07;;;;;;;2.77;100.00;101006.72;5097769;27;20747;-77
2023/10/18 02:12:06;;;;;;;26.35;15.32;;;;;;;2.69;100.00;101008.22;5096988;27;20100;-76
2023/10/18 02:14:34;;;;;;;25.77;13.75;;;;;;;2.65;100.00;101002.94;5091992;27;20093;-76
2023/10/18 02:17:02;;;;;;;20.02;14.20;;;;;;;2.63;100.00;101003.72;5098259;27;20159;-75
2023/10/18 02:19:34;;;;;;;25.15;14.27;;;;;;;2.59;100.00;100997.56;5103028;27;20071;-76
2023/10/18 02:22:00;;;;;;;24.80;14.45;;;;;;;2.56;100.00;100989.75;5099920;27;20059;-78
2023/10/18 02:24:27;;;;;;;26.95;14.77;;;;;;;2.56;100.00;100991.47;5099005;27;20467;-77
2023/10/18 02:27:00;;;;;;;27.77;15.35;;;;;;;2.55;100.00;100985.41;5096640;27;20058;-76
2023/10/18 02:29:28;;;;;;;30.17;15.13;;;;;;;2.56;100.00;100987.16;5094819;27;20146;-76
2023/10/18 02:31:57;;;;;;;22.50;15.05;;;;;;;2.58;100.00;100985.50;5098057;27;20040;-78
2023/10/18 02:34:28;;;;;;;27.95;15.55;;;;;;;2.56;100.00;100984.56;5096056;27;20044;-76
2023/10/18 02:36:58;;;;;;;22.02;13.73;;;;;;;2.61;100.00;100985.59;5094818;27;20029;-76
2023/10/18 02:39:27;;;;;;;25.23;14.48;;;;;;;2.65;100.00;100978.81;5099973;27;20079;-78
2023/10/18 02:41:56;;;;;;;26.92;15.70;;;;;;;2.65;100.00;100973.63;5094709;27;20113;-75
2023/10/18 02:44:23;;;;;;;27.85;15.45;;;;;;;2.64;100.00;100972.75;5097972;27;20043;-76
2023/10/18 02:46:55;;;;;;;27.50;14.95;;;;;;;2.62;100.00;100970.94;5085989;27;20040;-75
2023/10/18 02:49:27;;;;;;;28.75;15.48;;;;;;;2.60;100.00;100972.63;5103791;27;20050;-75
2023/10/18 02:51:56;;;;;;;28.35;16.15;;;;;;;2.60;100.00;100977.78;5098999;27;20139;-77
2023/10/18 02:54:24;;;;;;;23.83;14.63;;;;;;;2.61;100.00;100970.09;5096345;27;20043;-78
2023/10/18 02:56:53;;;;;;;27.73;15.30;;;;;;;2.63;100.00;100980.47;5097320;27;20046;-78
2023/10/18 02:59:27;;;;;;;26.60;14.80;;;;;;;2.63;100.00;100972.69;5098385;27;20047;-75
2023/10/18 03:01:55;;;;;;;32.22;14.77;;;;;;;2.64;100.00;100972.75;5080503;28;20047;-79
2023/10/18 03:04:23;;;;;;;27.60;14.65;;;;;;;2.65;100.00;100965.88;5099738;28;20059;-75
2023/10/18 03:06:53;;;;;;;46.20;16.73;;;;;;;2.65;100.00;100965.88;5100000;28;20122;-75
2023/10/18 03:09:27;;;;;;;27.95;16.48;;;;;;;2.66;100.00;100970.22;5098046;28;20031;-76
2023/10/18 03:11:58;;;;;;;28.20;15.32;;;;;;;2.70;100.00;100960.81;5099604;28;20055;-76
2023/10/18 03:14:39;;;;;;;33.03;15.85;;;;;;;2.70;100.00;100955.66;5080982;28;20059;-76
2023/10/18 03:17:15;;;;;;;39.65;17.15;;;;;;;2.76;100.00;100964.44;5096532;28;20063;-77
2023/10/18 03:19:44;;;;;;;29.73;15.55;;;;;;;2.75;100.00;100959.25;5113579;27;20130;-75
2023/10/18 03:22:11;;;;;;;26.23;14.45;;;;;;;2.80;100.00;100949.91;5080268;28;20051;-76
2023/10/18 03:24:38;;;;;;;33.22;16.15;;;;;;;2.79;100.00;100958.50;5091900;28;20035;-76
2023/10/18 03:27:08;;;;;;;29.67;14.48;;;;;;;2.87;100.00;100953.53;5084483;28;20051;-75
2023/10/18 03:29:39;;;;;;;34.78;17.15;;;;;;;2.86;100.00;100949.22;5100821;28;20032;-80
2023/10/18 03:32:08;;;;;;;28.60;14.95;;;;;;;2.89;100.00;100949.28;5079449;28;20052;-78
2023/10/18 03:34:37;;;;;;;31.85;15.85;;;;;;;2.89;100.00;100938.94;5096521;28;20067;-77
2023/10/18 03:37:06;;;;;;;36.97;15.88;;;;;;;2.84;100.00;100940.53;5094721;28;20044;-76
2023/10/18 03:39:32;;;;;;;29.67;15.82;;;;;;;2.86;100.00;100941.47;5080799;28;20047;-76
2023/10/18 03:42:03;;;;;;;34.38;15.13;;;;;;;2.84;100.00;100936.22;5098165;28;20050;-77
2023/10/18 03:44:32;;;;;;;27.02;15.25;;;;;;;2.85;100.00;100932.81;5097076;28;20088;-77
2023/10/18 03:47:05;;;;;;;73.78;17.50;;;;;;;2.84;100.00;100938.81;5078084;28;20057;-77
2023/10/18 03:49:36;;;;;;;28.50;16.38;;;;;;;2.86;100.00;100941.47;5096695;28;20096;-77
2023/10/18 03:52:16;;;;;;;36.33;16.67;;;;;;;2.91;100.00;100935.56;5079950;28;20048;-79
2023/10/18 03:54:57;;;;;;;43.13;16.25;;;;;;;2.94;100.00;100942.53;5095049;28;20146;-75
2023/10/18 03:57:29;;;;;;;27.20;13.40;;;;;;;2.95;100.00;100933.94;5097406;28;20783;-78
2023/10/18 03:59:58;;;;;;;29.88;13.90;;;;;;;2.96;100.00;100936.56;5095586;28;20808;-77
2023/10/18 04:02:27;;;;;;;33.17;14.27;;;;;;;2.96;100.00;100935.72;5092155;28;20095;-79
2023/10/18 04:04:59;;;;;;;31.75;14.27;;;;;;;3.00;100.00;100931.47;5095221;27;20467;-78
2023/10/18 04:07:26;;;;;;;34.15;16.38;;;;;;;2.94;100.00;100935.66;5078670;28;20076;-78
2023/10/18 04:10:06;;;;;;;30.58;15.75;;;;;;;3.01;100.00;100930.63;5095345;28;20044;-77
2023/10/18 04:12:33;;;;;;;32.20;14.30;;;;;;;3.05;100.00;100932.47;5093100;28;20129;-76
2023/10/18 04:15:00;;;;;;;93.00;19.27;;;;;;;3.06;100.00;100923.88;5094450;27;20056;-76
2023/10/18 04:17:38;;;;;;;40.10;17.55;;;;;;;3.02;100.00;100922.06;5100493;27;20042;-77
2023/10/18 04:20:22;;;;;;;27.65;13.93;;;;;;;3.07;100.00;100918.75;5099033;27;20051;-77
2023/10/18 04:22:50;;;;;;;38.97;13.88;;;;;;;3.03;100.00;100918.63;5094924;27;20039;-76
2023/10/18 04:25:26;;;;;;;64.50;17.15;;;;;;;3.01;100.00;100922.88;5097348;27;20043;-78
2023/10/18 04:27:54;;;;;;;71.35;17.40;;;;;;;2.96;100.00;100922.78;5088049;27;20058;-78
2023/10/18 04:30:23;;;;;;;29.48;14.18;;;;;;;2.98;100.00;100923.69;5101472;27;20113;-78
2023/10/18 04:32:54;;;;;;;27.02;14.07;;;;;;;3.02;100.00;100922.06;5093100;27;20928;-77
2023/10/18 04:35:25;;;;;;;30.48;14.02;;;;;;;3.00;100.00;100918.53;5100276;27;20048;-77
2023/10/18 04:37:56;;;;;;;33.15;15.93;;;;;;;2.98;100.00;100915.91;5097143;27;20471;-79
2023/10/18 04:40:25;;;;;;;35.28;15.90;;;;;;;2.99;100.00;100899.56;5098386;27;20047;-79
2023/10/18 04:42:54;;;;;;;46.80;15.98;;;;;;;2.98;100.00;100903.84;5079489;28;20101;-80
2023/10/18 04:45:23;;;;;;;36.72;15.18;;;;;;;3.08;100.00;100899.81;5088165;27;20039;-77
2023/10/18 04:47:51;;;;;;;66.70;17.63;;;;;;;3.08;100.00;100897.22;5096802;27;20047;-78
2023/10/18 04:50:29;;;;;;;36.03;14.35;;;;;;;3.02;100.00;100891.88;5098574;27;20036;-78
2023/10/18 04:52:58;;;;;;;47.30;15.52;;;;;;;3.09;100.00;100906.75;5097140;27;20088;-78
2023/10/18 04:55:25;;;;;;;28.33;14.45;;;;;;;3.16;100.00;100901.72;5108028;27;20122;-76
2023/10/18 04:57:54;;;;;;;32.38;16.63;;;;;;;3.14;100.00;100907.72;5104390;27;20040;-76
2023/10/18 05:00:36;;;;;;;41.95;15.88;;;;;;;3.13;100.00;100903.38;5103404;27;20658;-77
2023/10/18 05:03:07;;;;;;;28.35;14.45;;;;;;;3.12;100.00;100896.47;5113557;27;20061;-75
2023/10/18 05:05:37;;;;;;;41.78;15.63;;;;;;;3.07;100.00;100905.81;5096589;27;20066;-77
2023/10/18 05:08:05;;;;;;;56.25;16.10;;;;;;;2.91;100.00;100894.19;5084508;27;20047;-77
2023/10/18 05:10:33;;;;;;;24.70;15.57;;;;;;;2.91;100.00;100894.19;5102879;27;20062;-77
2023/10/18 05:13:10;;;;;;;37.10;16.55;;;;;;;2.97;100.00;100891.78;5100916;27;20498;-77
2023/10/18 05:15:37;;;;;;;43.53;16.08;;;;;;;2.94;100.00;100883.91;5095976;27;20551;-76
2023/10/18 05:18:05;;;;;;;32.13;15.07;;;;;;;2.89;100.00;100882.94;5099667;27;20055;-77
2023/10/18 05:20:46;;;;;;;43.97;15.90;;;;;;;2.90;100.00;100870.91;5094377;27;20071;-79
2023/10/18 05:23:22;;;;;;;29.35;14.27;;;;;;;2.87;100.00;100878.53;5102667;27;20036;-79
2023/10/18 05:25:57;;;;;;;26.48;14.70;;;;;;;2.84;100.00;100873.31;5092838;27;20051;-76
2023/10/18 05:28:28;;;;;;;35.80;15.70;;;;;;;2.89;100.00;100871.72;5098702;27;20088;-75
2023/10/18 05:33:58;;;;;;;49.30;16.83;;;;;;;2.87;100.00;100861.34;5095592;27;20035;-77
2023/10/18 05:36:42;;;;;;;37.60;16.00;;;;;;;2.79;100.00;100855.97;5093912;27;20047;-77
2023/10/18 05:39:28;;;;;;;55.80;15.60;;;;;;;2.82;100.00;100862.94;5100925;27;20059;-77
2023/10/18 05:41:59;;;;;;;50.75;16.83;;;;;;;2.78;100.00;100856.81;5094772;27;20569;-78
2023/10/18 05:44:28;;;;;;;33.35;14.60;;;;;;;2.72;100.00;100855.78;5099288;27;20059;-78
2023/10/18 05:46:58;;;;;;;33.63;14.18;;;;;;;2.67;100.00;100860.81;5097048;27;20423;-77
2023/10/18 05:49:28;;;;;;;25.90;13.65;;;;;;;2.67;100.00;100850.47;5098878;27;20039;-77
2023/10/18 05:52:16;;;;;;;26.25;13.40;;;;;;;2.68;100.00;100859.13;5097771;27;20956;-76
2023/10/18 05:54:43;;;;;;;39.28;15.15;;;;;;;2.65;100.00;100853.00;5106525;27;20130;-76
2023/10/18 05:57:15;;;;;;;23.52;13.85;;;;;;;2.69;100.00;100848.81;5080910;27;20109;-76
2023/10/18 05:59:46;;;;;;;38.40;15.63;;;;;;;2.58;100.00;100843.38;5092231;27;20348;-80
2023/10/18 06:02:22;;;;;;;23.10;13.57;;;;;;;2.63;100.00;100840.88;5093843;27;20044;-77
2023/10/18 06:04:55;;;;;;;36.72;15.63;;;;;;;2.62;100.00;100837.44;5097038;27;20035;-78
2023/10/18 06:07:24;;;;;;;36.88;14.88;;;;;;;2.65;100.00;100840.09;5092888;27;20058;-78
2023/10/18 06:09:57;;;;;;;39.58;16.98;;;;;;;2.68;100.00;100846.19;5092439;27;20070;-76
2023/10/18 06:12:27;;;;;;;28.65;13.82;;;;;;;2.78;100.00;100840.44;5088557;28;20051;-78
2023/10/18 06:14:54;;;;;;;41.10;17.83;;;;;;;2.81;100.00;100833.59;5101363;27;20050;-77
2023/10/18 06:17:26;;;;;;;40.78;16.10;;;;;;;2.81;100.00;100828.44;5101669;27;20035;-78
2023/10/18 06:19:56;;;;;;;28.20;15.05;;;;;;;2.77;100.00;100828.34;5093816;27;20067;-76
2023/10/18 06:22:39;;;;;;;25.83;15.07;;;;;;;2.91;100.00;100826.09;5100134;27;20038;-76
2023/10/18 06:25:09;;;;;;;38.88;15.63;;;;;;;2.88;100.00;100824.31;5095394;27;20553;-76
2023/10/18 06:27:39;;;;;;;32.22;16.00;;;;;;;2.91;100.00;100818.34;5097215;27;20121;-78
2023/10/18 06:30:14;;;;;;;31.00;16.35;;;;;;;2.98;100.00;100812.47;5098907;27;20031;-76
2023/10/18 06:32:46;;;;;;;30.67;16.10;;;;;;;3.09;100.00;100815.31;5101326;27;20036;-77
2023/10/18 06:35:15;;;;;;;27.42;15.65;;;;;;;3.20;100.00;100815.59;5082871;27;20388;-75
2023/10/18 06:37:42;;;;;;;32.33;15.80;;;;;;;3.19;100.00;100811.25;5087462;28;20040;-76
2023/10/18 06:40:22;;;;;;;39.38;15.68;;;;;;;3.21;100.00;100818.22;5099056;27;20048;-78
2023/10/18 06:42:49;;;;;;;36.08;16.90;;;;;;;3.16;100.00;100814.63;5097732;27;20043;-78
2023/10/18 06:45:17;;;;;;;34.90;16.88;;;;;;;3.21;100.00;100818.22;5104519;27;20039;-78
2023/10/18 06:47:45;;;;;;;38.40;16.70;;;;;;;3.28;100.00;100816.63;5098571;27;20051;-80
2023/10/18 06:50:14;;;;;;;38.85;16.85;;;;;;;3.28;100.00;100803.69;5096902;27;20074;-77
2023/10/18 06:52:44;;;;;;;30.45;16.15;;;;;;;3.34;100.00;100811.63;5098545;27;20040;-78
2023/10/18 06:55:15;;;;;;;37.95;16.58;;;;;;;3.29;100.00;100805.47;5084987;27;20095;-77
2023/10/18 06:57:43;;;;;;;34.10;15.38;;;;;;;3.21;100.00;100807.00;5097457;27;20040;-78
2023/10/18 07:00:12;;;;;;;31.48;17.55;;;;;;;3.29;100.00;100808.03;5103380;27;20031;-78
2023/10/18 07:02:39;;;;;;;35.10;15.93;;;;;;;3.46;100.00;100808.44;5104209;28;20036;-79
2023/10/18 07:05:08;;;;;;;29.00;14.93;;;;;;;3.45;100.00;100817.88;5108396;27;20044;-77
2023/10/18 07:07:37;;;;;;;27.17;14.30;;;;;;;3.36;100.00;100809.91;5095880;27;20048;-78
2023/10/18 07:10:05;;;;;;;35.05;17.63;;;;;;;3.41;100.00;100815.22;5078119;28;20546;-78
2023/10/18 07:12:44;;;;;;;27.98;15.75;;;;;;;3.53;100.00;100812.88;5100352;28;20043;-76
2023/10/18 07:15:16;;;;;;;30.02;15.15;;;;;;;3.65;100.00;100812.31;5091610;27;20180;-76
2023/10/18 07:17:43;;;;;;;23.27;14.23;;;;;;;3.84;100.00;100813.56;5098707;28;20046;-76
2023/10/18 07:20:15;;;;;;;25.48;14.93;;;;;;;3.98;100.00;100806.09;5097189;28;20094;-75
2023/10/18 07:22:45;;;;;;;27.42;15.95;;;;;;;4.27;100.00;100801.47;5095199;28;20125;-76
2023/10/18 07:25:19;;;;;;;32.55;16.50;;;;;;;4.19;100.00;100795.28;5100772;28;20473;-76
2023/10/18 07:27:45;;;;;;;;;;;;;;;4.13;100.00;100788.25;5098084;28;20040;-77
2023/10/18 07:30:15;;;;;;;24.20;13.07;;;;;;;4.32;100.00;100783.44;5098244;28;19931;-77
2023/10/18 07:32:47;;;;;;;27.10;16.15;;;;;;;4.46;100.00;100774.19;5096204;28;20047;-77
2023/10/18 07:35:26;;;;;;;25.02;14.45;;;;;;;4.56;100.00;100776.94;5097568;28;20082;-76
2023/10/18 07:37:55;;;;;;;28.83;15.32;;;;;;;4.75;100.00;100776.41;5078935;28;20127;-76
2023/10/18 07:40:23;;;;;;;25.92;13.48;;;;;;;4.69;100.00;100767.66;5102457;28;20136;-78
2023/10/18 07:42:52;;;;;;;23.45;13.68;;;;;;;4.77;100.00;100766.94;5100881;28;20522;-77
2023/10/18 07:45:28;;;;;;;27.70;14.23;;;;;;;4.78;100.00;100760.03;5100170;27;20036;-78
2023/10/18 07:47:54;;;;;;;27.27;13.32;;;;;;;4.97;100.00;100761.19;5097857;27;20044;-76
2023/10/18 07:50:42;;;;;;;26.67;14.43;;;;;;;4.99;100.00;100761.22;5096184;27;20126;-77
2023/10/18 07:53:12;;;;;;;27.05;14.90;;;;;;;5.05;100.00;100756.13;5103683;27;20134;-77
2023/10/18 07:55:41;;;;;;;23.63;13.25;;;;;;;4.93;100.00;100760.28;5105507;27;20043;-78
2023/10/18 07:58:21;;;;;;;22.52;14.25;;;;;;;5.08;100.00;100764.81;5102347;27;20068;-77
2023/10/18 08:01:07;;;;;;;24.75;14.15;;;;;;;4.93;100.00;100764.59;5090453;27;20417;-78
2023/10/18 08:03:35;;;;;;;23.80;14.07;;;;;;;5.23;100.00;100752.94;5104419;27;20035;-77
2023/10/18 08:06:06;;;;;;;31.85;14.75;;;;;;;5.21;100.00;100750.31;5094874;28;20046;-79
2023/10/18 08:08:36;;;;;;;22.73;15.10;;;;;;;5.48;100.00;100748.97;5107447;27;20071;-77
2023/10/18 08:11:06;;;;;;;22.13;13.05;;;;;;;5.54;100.00;100740.38;5106119;27;20083;-77
2023/10/18 08:13:43;;;;;;;26.75;13.93;;;;;;;5.66;100.00;100737.94;5099624;27;20039;-79
2023/10/18 08:16:19;;;;;;;23.90;14.38;;;;;;;5.74;100.00;100736.31;5108529;27;20066;-77
2023/10/18 08:18:52;;;;;;;24.17;14.02;;;;;;;5.67;100.00;100738.81;5101106;27;20040;-79
2023/10/18 08:21:27;;;;;;;25.60;15.67;;;;;;;5.62;100.00;100731.84;5098191;27;20100;-79
2023/10/18 08:23:56;;;;;;;27.63;14.63;;;;;;;5.80;100.00;100728.59;5100866;28;20040;-80
2023/10/18 08:26:27;;;;;;;22.33;13.75;;;;;;;6.00;100.00;100734.88;5102657;27;20662;-77
2023/10/18 08:28:54;;;;;;;23.77;14.57;;;;;;;6.02;100.00;100726.25;5099232;27;20546;-79
2023/10/18 08:31:32;;;;;;;22.95;14.60;;;;;;;6.05;100.00;100717.63;5083728;28;20085;-78
2023/10/18 08:34:05;;;;;;;27.13;16.10;;;;;;;5.95;100.00;100716.63;5085957;27;21289;-77
2023/10/18 08:36:35;;;;;;;28.25;14.57;;;;;;;6.13;100.00;100710.78;5099566;27;20112;-79
2023/10/18 08:39:03;;;;;;;24.00;15.18;;;;;;;6.21;100.00;100714.31;5101385;27;20845;-76
2023/10/18 08:41:35;;;;;;;26.85;14.57;;;;;;;6.09;100.00;100717.69;5106161;27;20063;-77
2023/10/18 08:44:15;;;;;;;22.75;14.48;;;;;;;6.19;100.00;100709.97;5099282;27;20040;-77
2023/10/18 08:46:51;;;;;;;27.00;14.80;;;;;;;6.27;100.00;100706.59;5103699;27;20054;-77
2023/10/18 08:49:25;;;;;;;27.02;14.63;;;;;;;6.38;100.00;100705.81;5082040;27;20423;-78
2023/10/18 08:52:04;;;;;;;28.70;15.40;;;;;;;6.20;100.00;100701.31;5095231;27;20135;-78
2023/10/18 08:54:32;;;;;;;25.05;15.90;;;;;;;6.33;99.72;100702.31;5101013;27;20043;-78
2023/10/18 08:57:06;;;;;;;31.10;16.80;;;;;;;6.37;99.86;100696.28;5104360;27;20050;-77
2023/10/18 08:59:42;;;;;;;27.48;14.10;;;;;;;6.32;99.83;100693.63;5093310;27;20082;-77
2023/10/18 09:02:13;;;;;;;29.80;17.13;;;;;;;6.48;99.22;100694.66;5101383;27;20047;-76
2023/10/18 09:04:44;;;;;;;27.25;15.45;;;;;;;6.75;98.70;100688.81;5100594;28;20031;-76
2023/10/18 09:07:18;;;;;;;28.92;15.40;;;;;;;6.81;97.64;100698.38;5100392;27;20122;-75
2023/10/18 09:09:57;;;;;;;26.98;15.63;;;;;;;7.03;97.08;100694.19;5105965;27;20133;-76
2023/10/18 09:15:28;;;;;;;27.75;15.80;;;;;;;7.27;95.38;100682.16;5083135;27;20043;-77
2023/10/18 09:18:03;;;;;;;25.33;14.07;;;;;;;7.53;94.19;100677.06;5081242;27;20082;-79
2023/10/18 09:20:31;;;;;;;25.35;14.80;;;;;;;7.45;93.34;100677.03;5106942;27;20048;-75
2023/10/18 09:23:03;;;;;;;23.73;15.32;;;;;;;7.61;93.48;100674.47;5097131;27;20044;-78
2023/10/18 09:25:47;;;;;;;25.92;15.10;;;;;;;7.70;92.61;100666.69;5105453;27;20043;-78
2023/10/18 09:28:25;;;;;;;27.35;14.65;;;;;;;7.40;93.57;100667.47;5099205;27;20046;-78
2023/10/18 09:31:00;;;;;;;22.05;13.77;;;;;;;7.52;92.79;100672.75;5092866;27;20044;-76
2023/10/18 09:33:33;;;;;;;21.85;13.93;;;;;;;7.56;93.06;100658.84;5098512;27;20613;-75
2023/10/18 09:36:18;;;;;;;22.80;13.07;;;;;;;7.62;92.18;100656.25;5096853;28;20039;-76
2023/10/18 09:38:45;;;;;;;23.50;13.07;;;;;;;7.78;91.96;100664.13;5077495;28;20143;-78
2023/10/18 09:41:11;;;;;;;18.83;13.48;;;;;;;7.88;90.91;100650.25;5100935;27;20036;-76
2023/10/18 09:43:38;;;;;;;21.48;13.38;;;;;;;8.11;90.62;100662.47;5099561;27;20039;-78
2023/10/18 09:46:07;;;;;;;21.25;12.52;;;;;;;8.25;89.07;100655.53;5105723;27;20036;-80
2023/10/18 09:48:38;;;;;;;20.30;12.55;;;;;;;8.29;87.41;100648.53;5095695;27;20113;-79
2023/10/18 09:51:08;;;;;;;18.15;11.88;;;;;;;8.47;86.62;100644.25;5101555;27;20123;-78
2023/10/18 09:53:45;;;;;;;20.15;12.93;;;;;;;8.62;85.14;100639.03;5093169;27;20059;-80
2023/10/18 09:56:18;;;;;;;19.90;12.63;;;;;;;8.71;84.88;100633.78;5078894;28;20048;-79
2023/10/18 09:58:47;;;;;;;23.65;13.63;;;;;;;8.63;83.77;100640.78;5098792;28;20581;-77
2023/10/18 10:01:24;;;;;;;17.92;11.43;;;;;;;8.51;83.65;100644.22;5105637;27;20127;-78
2023/10/18 10:03:52;;;;;;;21.58;12.90;;;;;;;8.57;84.73;100640.75;5104713;27;20036;-77
2023/10/18 10:06:27;;;;;;;21.30;14.02;;;;;;;8.56;84.34;100636.41;5093751;27;20052;-79
2023/10/18 10:09:11;;;;;;;22.63;12.35;;;;;;;8.79;84.00;100633.78;5078469;28;20108;-80
2023/10/18 10:11:44;;;;;;;15.20;11.23;;;;;;;8.79;84.54;100625.94;5101557;27;20051;-79
2023/10/18 10:14:15;;;;;;;21.95;11.88;;;;;;;8.77;84.28;100625.94;5096235;27;20047;-78
2023/10/18 10:16:56;;;;;;;22.38;12.90;;;;;;;9.09;83.81;100626.75;5099611;27;20039;-79
2023/10/18 10:19:30;;;;;;;19.75;12.82;;;;;;;9.14;82.10;100618.88;5099225;27;20092;-76
2023/10/18 10:22:04;;;;;;;;;;;;;;;9.23;81.51;100611.88;5097858;27;20043;-78
2023/10/18 10:24:45;;;;;;;18.92;11.68;;;;;;;9.46;81.00;100610.03;5100970;27;20362;-77
2023/10/18 10:27:41;;;;;;;18.75;11.15;;;;;;;9.36;79.33;100611.81;5097224;28;20310;-79
2023/10/18 10:30:20;;;;;;;18.85;12.93;;;;;;;9.48;78.31;100601.31;5106235;27;20503;-77
2023/10/18 10:32:59;;;;;;;14.65;10.40;;;;;;;9.43;77.70;100593.50;5111004;27;20040;-81
2023/10/18 10:35:32;;;;;;;14.60;11.00;;;;;;;9.49;78.49;100589.09;5105407;27;20046;-76
2023/10/18 10:38:05;;;;;;;16.80;11.18;;;;;;;9.80;76.61;100594.16;5106572;27;20048;-78
2023/10/18 10:40:44;;;;;;;16.73;10.50;;;;;;;9.87;76.45;100586.25;5110168;27;20066;-79
2023/10/18 10:43:12;;;;;;;15.68;10.32;;;;;;;9.96;75.87;100582.72;5112568;27;20047;-76
2023/10/18 10:45:43;;;;;;;18.50;10.18;;;;;;;10.09;74.72;100580.88;5084449;28;20052;-77
2023/10/18 10:48:16;;;;;;;15.68;10.55;;;;;;;10.17;73.22;100568.59;5103742;28;20380;-77
2023/10/18 10:50:52;;;;;;;14.40;9.73;;;;;;;10.02;73.14;100563.50;5104629;28;20059;-78
2023/10/18 10:53:35;;;;;;;17.40;9.65;;;;;;;10.18;72.15;100554.66;5099306;27;20049;-78
2023/10/18 10:56:21;;;;;;;13.27;9.67;;;;;;;10.04;71.29;100552.13;5095759;28;20103;-77
2023/10/18 10:58:55;;;;;;;12.75;8.52;;;;;;;10.08;71.42;100551.22;5098664;28;20381;-78
2023/10/18 11:01:43;;;;;;;15.93;8.90;;;;;;;10.21;70.47;100544.13;5099048;28;20071;-79
2023/10/18 11:04:14;;;;;;;12.77;9.27;;;;;;;10.25;71.00;100540.59;5097357;27;20043;-78
2023/10/18 11:06:43;;;;;;;13.00;8.35;;;;;;;10.09;70.06;100539.88;5102042;27;20570;-80
2023/10/18 11:09:16;;;;;;;15.75;9.57;;;;;;;10.12;69.91;100533.75;5088796;27;20051;-76
2023/10/18 11:11:45;;;;;;;15.45;9.65;;;;;;;10.27;70.00;100536.25;5083527;27;20051;-78
2023/10/18 11:14:22;;;;;;;12.55;8.38;;;;;;;10.28;69.45;100524.00;5098610;27;20074;-76
2023/10/18 11:16:53;;;;;;;12.93;8.73;;;;;;;10.39;68.81;100516.06;5094769;27;20043;-77
2023/10/18 11:19:28;;;;;;;14.75;8.25;;;;;;;10.49;68.74;100515.09;5094062;27;20044;-76
2023/10/18 11:21:58;;;;;;;11.57;7.97;;;;;;;10.45;67.85;100517.78;5098430;28;20046;-78
2023/10/18 11:24:27;;;;;;;11.68;8.82;;;;;;;10.59;67.48;100510.66;5091155;28;20047;-79
2023/10/18 11:26:54;;;;;;;12.68;8.10;;;;;;;10.53;67.19;100501.13;5099003;28;20140;-78
2023/10/18 11:29:24;;;;;;;14.43;9.80;;;;;;;10.47;66.42;100490.72;5097298;28;20142;-76
2023/10/18 11:31:58;;;;;;;11.10;7.75;;;;;;;10.48;67.35;100482.00;5103481;28;20118;-76
2023/10/18 11:34:26;;;;;;;10.98;8.63;;;;;;;10.69;67.00;100482.59;5098379;28;20093;-76
2023/10/18 11:37:01;;;;;;;15.32;8.60;;;;;;;10.90;65.96;100478.88;5082357;28;20044;-78